createdAt,value
2022-11-10T00:01:13.147Z,13.48
2022-11-10T00:04:00.969Z,13.18
2022-11-10T00:06:48.946Z,13.45
2022-11-10T00:09:36.182Z,13.07
2022-11-10T00:12:24.354Z,12.32
2022-11-10T00:15:30.951Z,13.88
2022-11-10T00:18:17.949Z,13.88
2022-11-10T00:21:07.992Z,13.45
2022-11-10T00:23:55.104Z,14.02
2022-11-10T00:26:43.001Z,14.80
2022-11-10T00:29:30.434Z,13.23
2022-11-10T00:32:19.185Z,14.63
2022-11-10T00:35:07.646Z,14.43
2022-11-10T00:37:55.477Z,15.18
2022-11-10T00:40:42.487Z,14.07
2022-11-10T00:43:31.033Z,14.02
2022-11-10T00:46:18.487Z,13.80
2022-11-10T00:49:07.109Z,15.23
2022-11-10T00:51:54.624Z,16.25
2022-11-10T00:54:42.160Z,14.60
2022-11-10T00:57:29.199Z,17.77
2022-11-10T01:00:18.013Z,15.82
2022-11-10T01:03:05.577Z,15.98
2022-11-10T01:05:54.028Z,19.48
2022-11-10T01:08:43.071Z,15.25
2022-11-10T01:11:30.489Z,15.45
2022-11-10T01:14:18.004Z,13.38
2022-11-10T01:17:05.625Z,14.88
2022-11-10T01:19:53.232Z,12.25
2022-11-10T01:22:42.194Z,10.07
2022-11-10T01:25:29.183Z,10.68
2022-11-10T01:28:17.180Z,6.68
2022-11-10T01:31:07.284Z,4.75
2022-11-10T01:33:55.446Z,5.43
2022-11-10T01:36:42.311Z,6.75
2022-11-10T01:39:31.547Z,5.80
2022-11-10T01:42:25.747Z,5.45
2022-11-10T01:45:46.416Z,8.27
2022-11-10T01:48:38.190Z,5.43
2022-11-10T01:51:28.999Z,3.22
2022-11-10T01:54:21.091Z,5.68
2022-11-10T01:57:13.617Z,4.68
2022-11-10T02:00:01.456Z,4.07
2022-11-10T02:02:54.275Z,3.95
2022-11-10T02:05:41.983Z,3.83
2022-11-10T02:08:29.958Z,5.22
2022-11-10T02:11:18.328Z,2.42
2022-11-10T02:14:08.231Z,3.10
2022-11-10T02:16:55.397Z,3.20
2022-11-10T02:19:43.729Z,8.30
2022-11-10T02:22:31.944Z,3.45
2022-11-10T02:25:22.762Z,4.97
2022-11-10T02:28:10.247Z,5.50
2022-11-10T02:30:57.041Z,6.03
2022-11-10T02:33:44.891Z,5.13
2022-11-10T02:36:32.514Z,4.68
2022-11-10T02:39:20.662Z,3.20
2022-11-10T02:42:10.699Z,4.38
2022-11-10T02:44:58.462Z,3.08
2022-11-10T02:47:45.990Z,5.28
2022-11-10T02:50:33.383Z,2.92
2022-11-10T02:53:21.720Z,6.78
2022-11-10T02:56:10.716Z,5.60
2022-11-10T02:58:58.605Z,4.00
2022-11-10T03:01:46.050Z,5.43
2022-11-10T03:04:33.425Z,4.05
2022-11-10T03:07:20.404Z,4.45
2022-11-10T03:10:09.293Z,3.83
2022-11-10T03:12:59.140Z,5.72
2022-11-10T03:15:48.793Z,4.80
2022-11-10T03:18:35.915Z,5.63
2022-11-10T03:21:23.863Z,4.72
2022-11-10T03:24:11.297Z,5.47
2022-11-10T03:26:59.278Z,4.47
2022-11-10T03:29:47.719Z,3.92
2022-11-10T03:32:35.620Z,3.95
2022-11-10T03:35:23.222Z,5.25
2022-11-10T03:38:10.274Z,9.65
2022-11-10T03:41:18.036Z,5.35
2022-11-10T03:44:05.789Z,4.38
2022-11-10T03:46:54.005Z,4.72
2022-11-10T03:49:42.405Z,4.72
2022-11-10T03:52:29.449Z,3.38
2022-11-10T03:55:19.459Z,4.90
2022-11-10T03:58:06.519Z,4.97
2022-11-10T04:00:54.912Z,4.63
2022-11-10T04:03:47.475Z,7.38
2022-11-10T04:06:55.027Z,5.80
2022-11-10T04:09:42.330Z,3.88
2022-11-10T04:12:47.024Z,4.50
2022-11-10T04:15:43.595Z,3.33
2022-11-10T04:18:31.327Z,6.63
2022-11-10T04:21:19.408Z,8.73
2022-11-10T04:24:08.282Z,6.82
2022-11-10T04:26:55.522Z,5.00
2022-11-10T04:29:42.890Z,4.78
2022-11-10T04:32:29.865Z,10.10
2022-11-10T04:35:17.304Z,5.70
2022-11-10T04:38:06.243Z,8.15
2022-11-10T04:40:53.632Z,5.28
2022-11-10T04:43:42.365Z,6.22
2022-11-10T04:46:32.157Z,5.95
2022-11-10T04:49:19.868Z,8.18
2022-11-10T04:52:08.668Z,5.40
2022-11-10T04:54:58.105Z,6.72
2022-11-10T04:57:45.054Z,6.18
2022-11-10T05:00:32.803Z,8.63
2022-11-10T05:03:20.222Z,6.57
2022-11-10T05:06:08.806Z,7.82
2022-11-10T05:08:55.938Z,6.63
2022-11-10T05:11:44.647Z,7.38
2022-11-10T05:14:31.743Z,6.25
2022-11-10T05:17:18.907Z,7.07
2022-11-10T05:20:06.694Z,6.57
2022-11-10T05:23:11.911Z,5.38
2022-11-10T05:25:59.038Z,6.88
2022-11-10T05:28:47.996Z,6.28
2022-11-10T05:31:34.682Z,6.75
2022-11-10T05:34:22.190Z,4.40
2022-11-10T05:37:09.269Z,5.50
2022-11-10T05:39:56.880Z,6.32
2022-11-10T05:42:44.664Z,6.95
2022-11-10T05:45:34.150Z,8.02
2022-11-10T05:48:21.030Z,11.10
2022-11-10T05:51:08.882Z,12.27
2022-11-10T05:53:55.783Z,10.80
2022-11-10T05:56:43.822Z,8.98
2022-11-10T05:59:30.768Z,10.18
2022-11-10T06:02:19.179Z,8.25
2022-11-10T06:05:07.835Z,9.13
2022-11-10T06:07:55.017Z,8.07
2022-11-10T06:10:42.302Z,9.13
2022-11-10T06:13:29.364Z,10.88
2022-11-10T06:16:16.387Z,8.60
2022-11-10T06:19:05.007Z,8.55
2022-11-10T06:21:57.078Z,9.00
2022-11-10T06:24:47.831Z,6.95
2022-11-10T06:27:35.062Z,8.50
2022-11-10T06:30:22.118Z,10.73
2022-11-10T06:33:10.924Z,7.60
2022-11-10T06:35:59.892Z,11.35
2022-11-10T06:38:47.187Z,7.78
2022-11-10T06:41:34.619Z,8.73
2022-11-10T06:44:22.105Z,7.70
2022-11-10T06:47:09.278Z,11.07
2022-11-10T06:49:56.843Z,10.10
2022-11-10T06:52:45.363Z,8.50
2022-11-10T06:55:33.607Z,11.07
2022-11-10T06:58:20.502Z,9.77
2022-11-10T07:01:07.838Z,8.25
2022-11-10T07:04:18.233Z,9.98
2022-11-10T07:07:02.826Z,9.40
2022-11-10T07:09:51.206Z,10.05
2022-11-10T07:12:38.508Z,10.45
2022-11-10T07:15:25.984Z,9.65
2022-11-10T07:18:13.792Z,10.20
2022-11-10T07:21:03.299Z,13.45
2022-11-10T07:23:51.310Z,9.25
2022-11-10T07:26:39.646Z,8.32
2022-11-10T07:29:27.196Z,14.52
2022-11-10T07:32:14.872Z,10.80
2022-11-10T07:35:02.593Z,12.57
2022-11-10T07:37:49.553Z,9.40
2022-11-10T07:40:37.955Z,14.18
2022-11-10T07:43:26.965Z,11.27
2022-11-10T07:46:14.682Z,10.35
2022-11-10T07:49:01.804Z,12.73
2022-11-10T07:51:48.714Z,9.10
2022-11-10T07:54:36.173Z,12.55
2022-11-10T07:57:23.299Z,12.30
2022-11-10T08:00:14.228Z,15.45
2022-11-10T08:03:05.712Z,11.73
2022-11-10T08:05:53.095Z,10.75
2022-11-10T08:08:39.918Z,11.43
2022-11-10T08:11:27.264Z,10.38
2022-11-10T08:14:14.377Z,10.90
2022-11-10T08:17:03.749Z,12.35
2022-11-10T08:19:50.703Z,10.20
2022-11-10T08:22:38.242Z,9.07
2022-11-10T08:25:26.378Z,11.98
2022-11-10T08:28:17.814Z,11.80
2022-11-10T08:31:06.304Z,10.45
2022-11-10T08:33:55.225Z,11.98
2022-11-10T08:36:42.828Z,11.75
2022-11-10T08:39:39.134Z,8.82
2022-11-10T08:42:26.134Z,9.68
2022-11-10T08:45:13.853Z,6.32
2022-11-10T08:48:02.651Z,5.07
2022-11-10T08:50:53.030Z,4.00
2022-11-10T08:53:39.886Z,8.07
2022-11-10T08:56:27.101Z,9.18
2022-11-10T08:59:14.805Z,6.03
2022-11-10T09:02:01.757Z,6.63
2022-11-10T09:04:49.724Z,6.63
2022-11-10T09:07:45.969Z,8.43
2022-11-10T09:10:33.215Z,5.43
2022-11-10T09:13:27.745Z,6.90
2022-11-10T09:16:16.651Z,5.82
2022-11-10T09:19:04.175Z,5.10
2022-11-10T09:21:51.356Z,5.65
2022-11-10T09:24:39.597Z,6.00
2022-11-10T09:27:26.822Z,6.68
2022-11-10T09:30:17.949Z,7.07
2022-11-10T09:33:10.295Z,8.35
2022-11-10T09:36:01.967Z,5.75
2022-11-10T09:38:49.797Z,7.28
2022-11-10T09:41:41.828Z,6.22
2022-11-10T09:44:34.967Z,6.72
2022-11-10T09:47:55.668Z,5.78
2022-11-10T09:50:41.534Z,4.82
2022-11-10T09:53:35.530Z,6.88
2022-11-10T09:56:31.269Z,11.55
2022-11-10T09:59:26.537Z,5.65
2022-11-10T10:02:23.951Z,5.80
2022-11-10T10:05:46.513Z,6.63
2022-11-10T10:08:46.409Z,6.75
2022-11-10T10:11:44.154Z,4.63
2022-11-10T10:14:49.462Z,4.65
2022-11-10T10:17:41.705Z,8.80
2022-11-10T10:20:36.273Z,5.95
2022-11-10T10:23:54.353Z,8.02
2022-11-10T10:26:43.210Z,6.47
2022-11-10T10:29:37.880Z,8.25
2022-11-10T10:32:27.930Z,4.85
2022-11-10T10:35:16.681Z,5.82
2022-11-10T10:38:06.026Z,4.90
2022-11-10T10:40:58.356Z,4.18
2022-11-10T10:43:49.996Z,5.45
2022-11-10T10:46:46.231Z,3.78
2022-11-10T10:49:36.311Z,8.00
2022-11-10T10:52:25.343Z,5.22
2022-11-10T10:55:15.235Z,5.95
2022-11-10T10:58:04.207Z,5.18
2022-11-10T11:00:55.332Z,6.90
2022-11-10T11:03:44.501Z,5.15
2022-11-10T11:06:35.376Z,4.93
2022-11-10T11:09:25.327Z,3.97
2022-11-10T11:12:15.083Z,5.28
2022-11-10T11:15:22.059Z,5.57
2022-11-10T11:18:16.320Z,4.85
2022-11-10T11:21:10.299Z,4.10
2022-11-10T11:24:13.670Z,6.88
2022-11-10T11:27:05.996Z,5.20
2022-11-10T11:30:05.872Z,7.10
2022-11-10T11:33:14.756Z,5.03
2022-11-10T11:36:10.398Z,7.43
2022-11-10T11:39:05.839Z,3.45
2022-11-10T11:42:05.699Z,5.72
2022-11-10T11:45:05.108Z,3.85
2022-11-10T11:48:12.038Z,4.85
2022-11-10T11:51:06.740Z,8.18
2022-11-10T11:54:13.907Z,5.95
2022-11-10T11:57:15.010Z,6.25
2022-11-10T12:00:10.391Z,4.65
2022-11-10T12:03:23.389Z,3.55
2022-11-10T12:06:28.138Z,5.22
2022-11-10T12:09:24.047Z,5.38
2022-11-10T12:12:33.429Z,4.10
2022-11-10T12:15:30.019Z,4.32
2022-11-10T12:18:30.463Z,4.38
2022-11-10T12:21:25.845Z,4.35
2022-11-10T12:24:36.176Z,4.03
2022-11-10T12:27:29.646Z,5.88
2022-11-10T12:30:19.231Z,5.32
2022-11-10T12:33:14.413Z,3.75
2022-11-10T12:36:04.375Z,4.20
2022-11-10T12:39:00.096Z,2.42
2022-11-10T12:41:50.854Z,3.22
2022-11-10T12:44:44.566Z,2.65
2022-11-10T12:47:37.040Z,5.97
2022-11-10T12:50:45.567Z,3.15
2022-11-10T12:53:34.865Z,2.55
2022-11-10T12:56:27.918Z,2.45
2022-11-10T12:59:23.439Z,4.05
2022-11-10T13:02:24.816Z,3.67
2022-11-10T13:05:24.835Z,4.03
2022-11-10T13:08:25.547Z,3.75
2022-11-10T13:11:27.120Z,5.07
2022-11-10T13:14:23.707Z,2.85
2022-11-10T13:17:12.762Z,3.42
2022-11-10T13:20:20.481Z,3.00
2022-11-10T13:23:23.399Z,4.53
2022-11-10T13:26:11.899Z,3.88
2022-11-10T13:29:02.659Z,4.07
2022-11-10T13:31:57.733Z,4.30
2022-11-10T13:34:46.061Z,3.17
2022-11-10T13:37:51.011Z,2.75
2022-11-10T13:40:39.624Z,5.78
2022-11-10T13:43:29.056Z,4.20
2022-11-10T13:46:16.116Z,4.30
2022-11-10T13:49:39.419Z,4.85
2022-11-10T13:52:45.488Z,4.95
2022-11-10T13:55:49.050Z,2.67
2022-11-10T13:58:37.686Z,4.38
2022-11-10T14:01:28.992Z,4.15
2022-11-10T14:04:42.300Z,6.00
2022-11-10T14:07:32.585Z,5.10
2022-11-10T14:10:35.722Z,4.25
2022-11-10T14:13:29.306Z,5.20
2022-11-10T14:16:23.215Z,3.25
2022-11-10T14:19:25.697Z,3.42
2022-11-10T14:22:23.843Z,5.53
2022-11-10T14:25:20.326Z,4.32
2022-11-10T14:28:26.076Z,6.82
2022-11-10T14:31:20.623Z,10.23
2022-11-10T14:34:14.131Z,6.18
2022-11-10T14:37:04.894Z,9.80
2022-11-10T14:39:55.796Z,11.52
2022-11-10T14:42:42.911Z,5.75
2022-11-10T14:45:31.719Z,4.00
2022-11-10T14:48:21.202Z,5.38
2022-11-10T14:51:14.126Z,6.75
2022-11-10T14:54:02.695Z,6.75
2022-11-10T14:56:50.568Z,7.57
2022-11-10T14:59:38.828Z,5.18
2022-11-10T15:02:26.924Z,4.55
2022-11-10T15:05:16.861Z,8.23
2022-11-10T15:08:05.381Z,7.75
2022-11-10T15:10:56.624Z,10.43
2022-11-10T15:13:43.931Z,6.65
2022-11-10T15:16:32.874Z,8.45
2022-11-10T15:19:28.590Z,3.70
2022-11-10T15:22:20.752Z,4.80
2022-11-10T15:25:16.284Z,7.70
2022-11-10T15:28:06.890Z,5.70
2022-11-10T15:30:56.483Z,3.75
2022-11-10T15:33:48.265Z,5.10
2022-11-10T15:36:39.563Z,4.00
2022-11-10T15:39:28.758Z,4.05
2022-11-10T15:42:17.963Z,4.55
2022-11-10T15:45:05.319Z,6.35
2022-11-10T15:47:52.543Z,4.50
2022-11-10T15:50:39.744Z,5.45
2022-11-10T15:53:31.384Z,6.85
2022-11-10T15:56:20.504Z,64.97
2022-11-10T15:59:07.826Z,69.68
2022-11-10T16:01:55.363Z,77.15
2022-11-10T16:04:42.610Z,27.85
2022-11-10T16:07:29.619Z,22.77
2022-11-10T16:10:18.273Z,22.42
2022-11-10T16:13:05.479Z,19.85
2022-11-10T16:15:52.943Z,19.60
2022-11-10T16:18:43.849Z,10.10
2022-11-10T16:21:31.270Z,11.20
2022-11-10T16:24:18.502Z,9.35
2022-11-10T16:27:09.080Z,12.98
2022-11-10T16:29:56.150Z,8.02
2022-11-10T16:32:43.355Z,6.45
2022-11-10T16:35:30.426Z,8.98
2022-11-10T16:38:20.740Z,6.75
2022-11-10T16:41:14.104Z,10.38
2022-11-10T16:44:03.283Z,7.43
2022-11-10T16:46:54.549Z,8.40
2022-11-10T16:49:46.034Z,7.72
2022-11-10T16:52:33.372Z,7.75
2022-11-10T16:55:20.278Z,7.95
2022-11-10T16:58:07.993Z,10.40
2022-11-10T17:01:00.738Z,7.25
2022-11-10T17:03:51.329Z,7.35
2022-11-10T17:06:39.012Z,7.03
2022-11-10T17:09:27.104Z,8.80
2022-11-10T17:12:15.152Z,7.18
2022-11-10T17:15:02.805Z,7.70
2022-11-10T17:17:54.242Z,8.60
2022-11-10T17:20:44.282Z,8.40
2022-11-10T17:23:31.837Z,6.97
2022-11-10T17:26:20.785Z,7.43
2022-11-10T17:29:07.783Z,11.02
2022-11-10T17:31:56.048Z,9.93
2022-11-10T17:34:44.430Z,6.65
2022-11-10T17:37:31.934Z,7.88
2022-11-10T17:40:21.655Z,7.45
2022-11-10T17:43:11.469Z,7.45
2022-11-10T17:46:00.126Z,8.13
2022-11-10T17:48:47.853Z,9.32
2022-11-10T17:51:37.601Z,10.10
2022-11-10T17:54:25.771Z,12.27
2022-11-10T17:57:13.095Z,10.05
2022-11-10T18:00:00.102Z,9.55
2022-11-10T18:02:54.162Z,13.15
2022-11-10T18:05:43.313Z,12.05
2022-11-10T18:08:32.509Z,9.80
2022-11-10T18:11:20.158Z,20.17
2022-11-10T18:14:07.281Z,12.57
2022-11-10T18:16:54.209Z,13.98
2022-11-10T18:19:42.137Z,11.27
2022-11-10T18:22:29.213Z,8.13
2022-11-10T18:25:18.192Z,8.38
2022-11-10T18:28:05.164Z,6.82
2022-11-10T18:30:51.817Z,9.63
2022-11-10T18:33:39.571Z,10.23
2022-11-10T18:36:26.830Z,10.27
2022-11-10T18:39:14.346Z,6.85
2022-11-10T18:42:02.801Z,15.00
2022-11-10T18:44:51.947Z,9.95
2022-11-10T18:47:40.289Z,6.07
2022-11-10T18:50:27.255Z,6.22
2022-11-10T18:53:14.407Z,8.18
2022-11-10T18:56:01.385Z,5.03
2022-11-10T18:58:56.442Z,8.80
2022-11-10T19:01:44.280Z,5.65
2022-11-10T19:04:31.171Z,9.57
2022-11-10T19:07:18.210Z,5.78
2022-11-10T19:10:06.535Z,7.18
2022-11-10T19:12:53.064Z,4.57
2022-11-10T19:15:42.666Z,8.07
2022-11-10T19:18:30.272Z,5.47
2022-11-10T19:21:19.746Z,7.32
2022-11-10T19:24:07.235Z,8.55
2022-11-10T19:26:54.774Z,13.98
2022-11-10T19:29:41.945Z,16.27
2022-11-10T19:32:32.186Z,12.52
2022-11-10T19:35:19.858Z,9.93
2022-11-10T19:38:07.283Z,10.60
2022-11-10T19:40:55.151Z,11.40
2022-11-10T19:43:47.134Z,12.93
2022-11-10T19:46:37.606Z,9.05
2022-11-10T19:49:25.870Z,9.68
2022-11-10T19:52:13.346Z,9.48
2022-11-10T19:55:00.449Z,12.30
2022-11-10T19:57:47.705Z,10.00
2022-11-10T20:00:35.967Z,6.78
2022-11-10T20:03:23.489Z,10.38
2022-11-10T20:06:13.855Z,13.23
2022-11-10T20:09:00.750Z,40.72
2022-11-10T20:11:48.198Z,18.55
2022-11-10T20:14:35.323Z,12.10
2022-11-10T20:17:23.535Z,15.35
2022-11-10T20:20:10.564Z,13.13
2022-11-10T20:23:03.253Z,13.35
2022-11-10T20:25:50.363Z,12.85
2022-11-10T20:28:39.375Z,10.68
2022-11-10T20:31:27.003Z,13.05
2022-11-10T20:34:15.209Z,10.80
2022-11-10T20:37:01.906Z,9.68
2022-11-10T20:39:50.228Z,10.52
2022-11-10T20:42:42.390Z,13.88
2022-11-10T20:45:29.769Z,8.98
2022-11-10T20:48:16.670Z,14.23
2022-11-10T20:51:10.154Z,8.97
2022-11-10T20:53:59.227Z,10.23
2022-11-10T20:56:48.727Z,9.10
2022-11-10T20:59:36.364Z,6.57
2022-11-10T21:02:23.750Z,6.37
2022-11-10T21:05:10.704Z,6.18
2022-11-10T21:07:58.054Z,9.55
2022-11-10T21:10:51.124Z,7.03
2022-11-10T21:13:40.043Z,10.05
2022-11-10T21:16:27.321Z,10.50
2022-11-10T21:19:14.341Z,10.13
2022-11-10T21:22:01.574Z,10.40
2022-11-10T21:24:49.146Z,7.53
2022-11-10T21:27:36.230Z,9.63
2022-11-10T21:30:24.497Z,14.90
2022-11-10T21:33:12.027Z,14.83
2022-11-10T21:35:59.058Z,10.20
2022-11-10T21:38:47.131Z,11.40
2022-11-10T21:41:34.091Z,10.27
2022-11-10T21:44:21.882Z,10.90
2022-11-10T21:47:10.502Z,10.47
2022-11-10T21:49:57.775Z,12.73
2022-11-10T21:52:44.765Z,9.70
2022-11-10T21:55:32.143Z,8.18
2022-11-10T21:58:19.243Z,8.95
2022-11-10T22:01:08.659Z,10.07
2022-11-10T22:03:56.955Z,8.95
2022-11-10T22:07:10.361Z,9.32
2022-11-10T22:10:14.996Z,10.50
2022-11-10T22:13:20.352Z,7.77
2022-11-10T22:16:39.191Z,9.93
2022-11-10T22:19:27.610Z,8.13
2022-11-10T22:22:15.594Z,5.90
2022-11-10T22:25:02.273Z,7.90
2022-11-10T22:27:49.882Z,9.33
2022-11-10T22:30:37.396Z,9.23
2022-11-10T22:33:34.614Z,8.40
2022-11-10T22:36:23.169Z,6.93
2022-11-10T22:39:10.560Z,12.23
2022-11-10T22:42:15.745Z,6.80
2022-11-10T22:45:02.966Z,10.03
2022-11-10T22:48:07.662Z,10.13
2022-11-10T22:50:55.536Z,8.30
2022-11-10T22:53:43.875Z,7.07
2022-11-10T22:56:33.205Z,9.50
2022-11-10T22:59:21.027Z,8.07
2022-11-10T23:02:08.583Z,5.60
2022-11-10T23:04:55.484Z,6.07
2022-11-10T23:07:42.833Z,6.07
2022-11-10T23:10:31.711Z,5.50
2022-11-10T23:13:19.293Z,8.23
2022-11-10T23:16:08.858Z,6.70
2022-11-10T23:18:56.766Z,6.87
2022-11-10T23:21:44.838Z,9.63
2022-11-10T23:24:31.693Z,8.30
2022-11-10T23:27:20.439Z,8.63
2022-11-10T23:30:08.884Z,10.90
2022-11-10T23:32:56.061Z,8.77
2022-11-10T23:35:43.551Z,8.60
2022-11-10T23:38:31.625Z,7.93
2022-11-10T23:41:21.886Z,7.87
2022-11-10T23:44:10.809Z,8.83
2022-11-10T23:46:57.814Z,8.20
2022-11-10T23:49:45.825Z,8.37
2022-11-10T23:52:33.105Z,6.27
2022-11-10T23:55:20.461Z,7.73
2022-11-10T23:58:07.806Z,6.77
